To NAV CANADA Home Page Login to a new session Search on AWWS site Feedback and Comments Disclaimer Vers la page française équivalente Tips FAQ What's new on the site To the Forecasts and Observations / NOTAM section To "File a Flight Plan" website Publications and other links Update of the User's profile FIC Telephone Numbers My Weather Data Folder Route Weather Data Regional Weather Data Local Weather Data To the Forecasts and Observations / NOTAM section
Request Generated 03/28/2017 at 02:16:35 UTC . Weather information available at that time is displayed.

METAR/TAF

MOOSE JAW/AIR VICE MARSHAL C.M. MCEWEN/SK    

SPECI CYMJ 280025Z 10005KT 12SM FEW012 FEW095 OVC110 07/03 A2998 RMK SC1AC1AS6 LAST OBS / NXT 281000 UTC SLP177=
METAR CYMJ 280000Z 10006KT 15SM FEW012 FEW095 OVC110 07/03 A2998 RMK SC1AC1AS6 SLP177=
METAR CYMJ 272300Z 12007KT 15SM FEW012 BKN130 OVC250 07/03 A2997 RMK SC1AC4CI3 SLP171=

TAF AMD CYMJ 280027Z 2800/2812 FCST CNCLD DUE END OF FLYING PROGRAM
RMK NXT FCST WILL BE ISSUED AT 281115Z=
Your time UTC time
Weather data provided by Environment Canada and NAV CANADA